sensor_id;sensor_type;location;lat;lon;timestamp;P1;durP1;ratioP1;P2;durP2;ratioP2
65271;SDS011;51868;48.812;8.198;2022-12-20T00:01:42;44.53;;;23.42;;
65271;SDS011;51868;48.812;8.198;2022-12-20T00:04:12;40.40;;;23.02;;
65271;SDS011;51868;48.812;8.198;2022-12-20T00:06:43;38.65;;;20.35;;
65271;SDS011;51868;48.812;8.198;2022-12-20T00:09:11;38.30;;;20.63;;
65271;SDS011;51868;48.812;8.198;2022-12-20T00:11:42;38.97;;;20.27;;
65271;SDS011;51868;48.812;8.198;2022-12-20T00:14:11;37.75;;;19.92;;
65271;SDS011;51868;48.812;8.198;2022-12-20T00:16:39;33.05;;;18.13;;
65271;SDS011;51868;48.812;8.198;2022-12-20T00:19:07;39.58;;;18.35;;
65271;SDS011;51868;48.812;8.198;2022-12-20T00:21:37;33.22;;;16.98;;
65271;SDS011;51868;48.812;8.198;2022-12-20T00:24:05;49.70;;;24.48;;
65271;SDS011;51868;48.812;8.198;2022-12-20T00:26:34;41.78;;;22.17;;
65271;SDS011;51868;48.812;8.198;2022-12-20T00:29:03;38.78;;;20.45;;
65271;SDS011;51868;48.812;8.198;2022-12-20T00:31:33;35.72;;;19.95;;
65271;SDS011;51868;48.812;8.198;2022-12-20T00:34:01;44.28;;;21.60;;
65271;SDS011;51868;48.812;8.198;2022-12-20T00:36:30;41.05;;;20.85;;
65271;SDS011;51868;48.812;8.198;2022-12-20T00:38:59;43.95;;;20.85;;
65271;SDS011;51868;48.812;8.198;2022-12-20T00:41:33;38.10;;;20.10;;
65271;SDS011;51868;48.812;8.198;2022-12-20T00:44:04;36.63;;;19.85;;
65271;SDS011;51868;48.812;8.198;2022-12-20T00:46:33;38.17;;;19.58;;
65271;SDS011;51868;48.812;8.198;2022-12-20T00:49:01;37.60;;;19.63;;
65271;SDS011;51868;48.812;8.198;2022-12-20T00:51:29;36.70;;;19.23;;
65271;SDS011;51868;48.812;8.198;2022-12-20T00:53:58;34.20;;;17.42;;
65271;SDS011;51868;48.812;8.198;2022-12-20T00:56:26;30.85;;;18.13;;
65271;SDS011;51868;48.812;8.198;2022-12-20T00:58:56;33.42;;;17.50;;
65271;SDS011;51868;48.812;8.198;2022-12-20T01:01:28;34.83;;;18.38;;
65271;SDS011;51868;48.812;8.198;2022-12-20T01:04:02;35.85;;;17.58;;
65271;SDS011;51868;48.812;8.198;2022-12-20T01:06:30;30.45;;;17.33;;
65271;SDS011;51868;48.812;8.198;2022-12-20T01:08:58;33.10;;;18.38;;
65271;SDS011;51868;48.812;8.198;2022-12-20T01:11:27;38.00;;;17.98;;
65271;SDS011;51868;48.812;8.198;2022-12-20T01:13:58;37.60;;;19.50;;
65271;SDS011;51868;48.812;8.198;2022-12-20T01:16:28;36.28;;;17.60;;
65271;SDS011;51868;48.812;8.198;2022-12-20T01:21:29;34.53;;;17.35;;
65271;SDS011;51868;48.812;8.198;2022-12-20T01:23:57;33.00;;;18.13;;
65271;SDS011;51868;48.812;8.198;2022-12-20T01:26:26;32.33;;;18.25;;
65271;SDS011;51868;48.812;8.198;2022-12-20T01:28:58;32.60;;;17.80;;
65271;SDS011;51868;48.812;8.198;2022-12-20T01:31:27;34.55;;;18.52;;
65271;SDS011;51868;48.812;8.198;2022-12-20T01:33:55;38.00;;;19.35;;
65271;SDS011;51868;48.812;8.198;2022-12-20T01:36:24;38.30;;;19.58;;
65271;SDS011;51868;48.812;8.198;2022-12-20T01:38:56;34.22;;;19.00;;
65271;SDS011;51868;48.812;8.198;2022-12-20T01:41:25;36.50;;;19.75;;
65271;SDS011;51868;48.812;8.198;2022-12-20T01:43:56;37.28;;;18.52;;
65271;SDS011;51868;48.812;8.198;2022-12-20T01:46:25;33.72;;;18.67;;
65271;SDS011;51868;48.812;8.198;2022-12-20T01:48:55;35.50;;;19.02;;
65271;SDS011;51868;48.812;8.198;2022-12-20T01:51:27;34.70;;;18.73;;
65271;SDS011;51868;48.812;8.198;2022-12-20T01:53:59;34.83;;;19.05;;
65271;SDS011;51868;48.812;8.198;2022-12-20T01:56:30;37.55;;;19.85;;
65271;SDS011;51868;48.812;8.198;2022-12-20T01:58:58;40.15;;;21.45;;
65271;SDS011;51868;48.812;8.198;2022-12-20T02:01:27;38.55;;;20.50;;
65271;SDS011;51868;48.812;8.198;2022-12-20T02:03:55;38.83;;;20.95;;
65271;SDS011;51868;48.812;8.198;2022-12-20T02:06:24;37.97;;;20.95;;
65271;SDS011;51868;48.812;8.198;2022-12-20T02:08:54;49.10;;;21.40;;
65271;SDS011;51868;48.812;8.198;2022-12-20T02:11:37;40.72;;;20.77;;
65271;SDS011;51868;48.812;8.198;2022-12-20T02:14:14;40.38;;;21.25;;
65271;SDS011;51868;48.812;8.198;2022-12-20T02:16:52;33.33;;;18.65;;
65271;SDS011;51868;48.812;8.198;2022-12-20T02:19:33;35.90;;;18.25;;
65271;SDS011;51868;48.812;8.198;2022-12-20T02:22:20;31.08;;;16.38;;
65271;SDS011;51868;48.812;8.198;2022-12-20T02:24:56;29.38;;;16.23;;
65271;SDS011;51868;48.812;8.198;2022-12-20T02:27:47;29.92;;;17.02;;
65271;SDS011;51868;48.812;8.198;2022-12-20T02:30:29;32.20;;;17.23;;
65271;SDS011;51868;48.812;8.198;2022-12-20T02:33:01;34.20;;;16.42;;
65271;SDS011;51868;48.812;8.198;2022-12-20T02:35:31;31.83;;;17.20;;
65271;SDS011;51868;48.812;8.198;2022-12-20T02:38:02;35.90;;;17.45;;
65271;SDS011;51868;48.812;8.198;2022-12-20T02:40:32;36.72;;;18.30;;
65271;SDS011;51868;48.812;8.198;2022-12-20T02:43:04;29.73;;;17.45;;
65271;SDS011;51868;48.812;8.198;2022-12-20T02:45:55;31.48;;;14.80;;
65271;SDS011;51868;48.812;8.198;2022-12-20T02:48:25;30.10;;;15.07;;
65271;SDS011;51868;48.812;8.198;2022-12-20T02:50:55;29.95;;;15.13;;
65271;SDS011;51868;48.812;8.198;2022-12-20T02:53:26;28.15;;;14.07;;
65271;SDS011;51868;48.812;8.198;2022-12-20T02:55:56;24.52;;;13.23;;
65271;SDS011;51868;48.812;8.198;2022-12-20T02:58:28;26.90;;;14.10;;
65271;SDS011;51868;48.812;8.198;2022-12-20T03:01:05;25.45;;;14.07;;
65271;SDS011;51868;48.812;8.198;2022-12-20T03:03:36;26.08;;;14.10;;
65271;SDS011;51868;48.812;8.198;2022-12-20T03:06:05;29.77;;;15.35;;
65271;SDS011;51868;48.812;8.198;2022-12-20T03:08:33;28.00;;;15.77;;
65271;SDS011;51868;48.812;8.198;2022-12-20T03:11:01;27.50;;;15.52;;
65271;SDS011;51868;48.812;8.198;2022-12-20T03:13:29;28.73;;;16.40;;
65271;SDS011;51868;48.812;8.198;2022-12-20T03:15:57;27.52;;;14.90;;
65271;SDS011;51868;48.812;8.198;2022-12-20T03:18:26;28.33;;;14.48;;
65271;SDS011;51868;48.812;8.198;2022-12-20T03:20:54;30.60;;;14.85;;
65271;SDS011;51868;48.812;8.198;2022-12-20T03:23:21;26.15;;;13.32;;
65271;SDS011;51868;48.812;8.198;2022-12-20T03:25:49;28.17;;;14.98;;
65271;SDS011;51868;48.812;8.198;2022-12-20T03:28:17;30.27;;;15.65;;
65271;SDS011;51868;48.812;8.198;2022-12-20T03:30:45;28.45;;;16.65;;
65271;SDS011;51868;48.812;8.198;2022-12-20T03:33:13;28.13;;;15.15;;
65271;SDS011;51868;48.812;8.198;2022-12-20T03:35:42;28.05;;;15.13;;
65271;SDS011;51868;48.812;8.198;2022-12-20T03:38:09;27.23;;;14.35;;
65271;SDS011;51868;48.812;8.198;2022-12-20T03:40:37;25.67;;;14.02;;
65271;SDS011;51868;48.812;8.198;2022-12-20T03:43:05;26.27;;;14.10;;
65271;SDS011;51868;48.812;8.198;2022-12-20T03:45:33;30.30;;;14.85;;
65271;SDS011;51868;48.812;8.198;2022-12-20T03:48:00;26.45;;;14.10;;
65271;SDS011;51868;48.812;8.198;2022-12-20T03:50:28;25.63;;;13.65;;
65271;SDS011;51868;48.812;8.198;2022-12-20T03:52:58;26.02;;;14.07;;
65271;SDS011;51868;48.812;8.198;2022-12-20T03:55:26;24.67;;;13.57;;
65271;SDS011;51868;48.812;8.198;2022-12-20T03:57:53;24.42;;;13.25;;
65271;SDS011;51868;48.812;8.198;2022-12-20T04:00:21;24.95;;;13.40;;
65271;SDS011;51868;48.812;8.198;2022-12-20T04:02:49;22.55;;;13.07;;
65271;SDS011;51868;48.812;8.198;2022-12-20T04:05:17;22.73;;;13.40;;
65271;SDS011;51868;48.812;8.198;2022-12-20T04:07:49;27.38;;;15.43;;
65271;SDS011;51868;48.812;8.198;2022-12-20T04:10:18;29.52;;;14.73;;
65271;SDS011;51868;48.812;8.198;2022-12-20T04:12:46;22.77;;;12.73;;
65271;SDS011;51868;48.812;8.198;2022-12-20T04:15:13;25.45;;;13.75;;
65271;SDS011;51868;48.812;8.198;2022-12-20T04:17:41;26.08;;;13.65;;
65271;SDS011;51868;48.812;8.198;2022-12-20T04:20:12;24.90;;;14.02;;
65271;SDS011;51868;48.812;8.198;2022-12-20T04:22:47;27.48;;;14.43;;
65271;SDS011;51868;48.812;8.198;2022-12-20T04:25:16;26.52;;;15.32;;
65271;SDS011;51868;48.812;8.198;2022-12-20T04:27:47;28.67;;;14.80;;
65271;SDS011;51868;48.812;8.198;2022-12-20T04:30:14;27.45;;;14.70;;
65271;SDS011;51868;48.812;8.198;2022-12-20T04:32:42;23.27;;;13.35;;
65271;SDS011;51868;48.812;8.198;2022-12-20T04:35:10;25.40;;;13.93;;
65271;SDS011;51868;48.812;8.198;2022-12-20T04:37:38;26.48;;;14.38;;
65271;SDS011;51868;48.812;8.198;2022-12-20T04:40:06;28.20;;;13.82;;
65271;SDS011;51868;48.812;8.198;2022-12-20T04:42:36;25.40;;;14.10;;
65271;SDS011;51868;48.812;8.198;2022-12-20T04:45:04;25.13;;;13.98;;
65271;SDS011;51868;48.812;8.198;2022-12-20T04:47:33;25.40;;;12.70;;
65271;SDS011;51868;48.812;8.198;2022-12-20T04:50:01;23.08;;;13.75;;
65271;SDS011;51868;48.812;8.198;2022-12-20T04:52:29;26.02;;;14.25;;
65271;SDS011;51868;48.812;8.198;2022-12-20T04:55:14;26.92;;;13.85;;
65271;SDS011;51868;48.812;8.198;2022-12-20T04:57:43;25.17;;;14.15;;
65271;SDS011;51868;48.812;8.198;2022-12-20T05:00:11;23.75;;;13.48;;
65271;SDS011;51868;48.812;8.198;2022-12-20T05:02:41;23.08;;;12.93;;
65271;SDS011;51868;48.812;8.198;2022-12-20T05:05:09;23.75;;;13.73;;
65271;SDS011;51868;48.812;8.198;2022-12-20T05:07:36;22.55;;;13.27;;
65271;SDS011;51868;48.812;8.198;2022-12-20T05:10:05;22.10;;;12.75;;
65271;SDS011;51868;48.812;8.198;2022-12-20T05:12:33;22.17;;;12.15;;
65271;SDS011;51868;48.812;8.198;2022-12-20T05:15:02;24.30;;;12.77;;
65271;SDS011;51868;48.812;8.198;2022-12-20T05:17:30;20.40;;;11.68;;
65271;SDS011;51868;48.812;8.198;2022-12-20T05:19:58;23.58;;;12.40;;
65271;SDS011;51868;48.812;8.198;2022-12-20T05:22:26;21.58;;;12.15;;
65271;SDS011;51868;48.812;8.198;2022-12-20T05:25:11;21.02;;;11.52;;
65271;SDS011;51868;48.812;8.198;2022-12-20T05:27:59;20.55;;;11.65;;
65271;SDS011;51868;48.812;8.198;2022-12-20T05:30:29;18.20;;;10.68;;
65271;SDS011;51868;48.812;8.198;2022-12-20T05:32:56;18.67;;;10.93;;
65271;SDS011;51868;48.812;8.198;2022-12-20T05:35:24;20.35;;;11.15;;
65271;SDS011;51868;48.812;8.198;2022-12-20T05:37:52;21.17;;;11.85;;
65271;SDS011;51868;48.812;8.198;2022-12-20T05:40:20;27.35;;;12.05;;
65271;SDS011;51868;48.812;8.198;2022-12-20T05:42:48;23.02;;;11.63;;
65271;SDS011;51868;48.812;8.198;2022-12-20T05:45:15;19.52;;;11.60;;
65271;SDS011;51868;48.812;8.198;2022-12-20T05:47:45;21.42;;;12.13;;
65271;SDS011;51868;48.812;8.198;2022-12-20T05:50:13;21.90;;;12.75;;
65271;SDS011;51868;48.812;8.198;2022-12-20T05:52:44;22.17;;;13.00;;
65271;SDS011;51868;48.812;8.198;2022-12-20T05:55:12;27.15;;;13.77;;
65271;SDS011;51868;48.812;8.198;2022-12-20T05:57:40;24.30;;;13.95;;
65271;SDS011;51868;48.812;8.198;2022-12-20T06:00:08;31.60;;;19.48;;
65271;SDS011;51868;48.812;8.198;2022-12-20T06:02:38;20.17;;;11.48;;
65271;SDS011;51868;48.812;8.198;2022-12-20T06:05:08;20.02;;;9.82;;
65271;SDS011;51868;48.812;8.198;2022-12-20T06:07:35;18.42;;;10.13;;
65271;SDS011;51868;48.812;8.198;2022-12-20T06:10:03;20.50;;;11.15;;
65271;SDS011;51868;48.812;8.198;2022-12-20T06:12:32;17.70;;;10.07;;
65271;SDS011;51868;48.812;8.198;2022-12-20T06:15:01;21.50;;;11.02;;
65271;SDS011;51868;48.812;8.198;2022-12-20T06:17:28;21.75;;;11.75;;
65271;SDS011;51868;48.812;8.198;2022-12-20T06:19:56;20.92;;;11.60;;
65271;SDS011;51868;48.812;8.198;2022-12-20T06:22:25;22.90;;;11.75;;
65271;SDS011;51868;48.812;8.198;2022-12-20T06:24:53;19.70;;;11.40;;
65271;SDS011;51868;48.812;8.198;2022-12-20T06:27:21;19.42;;;10.48;;
65271;SDS011;51868;48.812;8.198;2022-12-20T06:29:49;21.85;;;12.45;;
65271;SDS011;51868;48.812;8.198;2022-12-20T06:32:19;23.67;;;13.05;;
65271;SDS011;51868;48.812;8.198;2022-12-20T06:34:47;26.42;;;14.55;;
65271;SDS011;51868;48.812;8.198;2022-12-20T06:37:15;25.17;;;13.40;;
65271;SDS011;51868;48.812;8.198;2022-12-20T06:39:44;21.70;;;12.35;;
65271;SDS011;51868;48.812;8.198;2022-12-20T06:42:12;22.10;;;12.73;;
65271;SDS011;51868;48.812;8.198;2022-12-20T06:44:40;23.67;;;12.65;;
65271;SDS011;51868;48.812;8.198;2022-12-20T06:47:08;25.20;;;13.30;;
65271;SDS011;51868;48.812;8.198;2022-12-20T06:49:36;16.73;;;9.68;;
65271;SDS011;51868;48.812;8.198;2022-12-20T06:52:03;18.27;;;10.13;;
65271;SDS011;51868;48.812;8.198;2022-12-20T06:54:31;16.00;;;10.02;;
65271;SDS011;51868;48.812;8.198;2022-12-20T06:57:00;17.83;;;9.57;;
65271;SDS011;51868;48.812;8.198;2022-12-20T06:59:30;15.00;;;9.30;;
65271;SDS011;51868;48.812;8.198;2022-12-20T07:01:57;15.00;;;9.40;;
65271;SDS011;51868;48.812;8.198;2022-12-20T07:04:25;22.02;;;11.32;;
65271;SDS011;51868;48.812;8.198;2022-12-20T07:06:53;19.33;;;10.55;;
65271;SDS011;51868;48.812;8.198;2022-12-20T07:09:22;18.15;;;11.23;;
65271;SDS011;51868;48.812;8.198;2022-12-20T07:11:50;15.52;;;9.52;;
65271;SDS011;51868;48.812;8.198;2022-12-20T07:14:19;19.25;;;9.95;;
65271;SDS011;51868;48.812;8.198;2022-12-20T07:16:47;18.75;;;10.70;;
65271;SDS011;51868;48.812;8.198;2022-12-20T07:19:15;17.77;;;10.75;;
65271;SDS011;51868;48.812;8.198;2022-12-20T07:21:45;21.40;;;11.13;;
65271;SDS011;51868;48.812;8.198;2022-12-20T07:24:13;21.63;;;13.77;;
65271;SDS011;51868;48.812;8.198;2022-12-20T07:26:42;23.30;;;13.80;;
65271;SDS011;51868;48.812;8.198;2022-12-20T07:29:11;23.83;;;13.48;;
65271;SDS011;51868;48.812;8.198;2022-12-20T07:31:42;22.33;;;12.73;;
65271;SDS011;51868;48.812;8.198;2022-12-20T07:34:10;23.27;;;13.50;;
65271;SDS011;51868;48.812;8.198;2022-12-20T07:36:38;23.27;;;13.32;;
65271;SDS011;51868;48.812;8.198;2022-12-20T07:39:06;22.50;;;13.35;;
65271;SDS011;51868;48.812;8.198;2022-12-20T07:41:37;22.13;;;13.20;;
65271;SDS011;51868;48.812;8.198;2022-12-20T07:44:07;26.83;;;14.30;;
65271;SDS011;51868;48.812;8.198;2022-12-20T07:46:37;22.23;;;14.60;;
65271;SDS011;51868;48.812;8.198;2022-12-20T07:49:07;24.83;;;14.30;;
65271;SDS011;51868;48.812;8.198;2022-12-20T07:51:39;24.25;;;14.18;;
65271;SDS011;51868;48.812;8.198;2022-12-20T07:54:10;23.92;;;14.00;;
65271;SDS011;51868;48.812;8.198;2022-12-20T07:56:40;25.85;;;14.02;;
65271;SDS011;51868;48.812;8.198;2022-12-20T07:59:11;23.60;;;14.15;;
65271;SDS011;51868;48.812;8.198;2022-12-20T08:01:41;22.98;;;13.80;;
65271;SDS011;51868;48.812;8.198;2022-12-20T08:04:13;22.52;;;13.15;;
65271;SDS011;51868;48.812;8.198;2022-12-20T08:06:43;28.80;;;15.05;;
65271;SDS011;51868;48.812;8.198;2022-12-20T08:09:11;24.75;;;14.93;;
65271;SDS011;51868;48.812;8.198;2022-12-20T08:11:40;27.08;;;16.33;;
65271;SDS011;51868;48.812;8.198;2022-12-20T08:14:11;23.73;;;15.32;;
65271;SDS011;51868;48.812;8.198;2022-12-20T08:16:39;24.70;;;16.15;;
65271;SDS011;51868;48.812;8.198;2022-12-20T08:19:10;28.58;;;16.77;;
65271;SDS011;51868;48.812;8.198;2022-12-20T08:21:39;26.95;;;16.17;;
65271;SDS011;51868;48.812;8.198;2022-12-20T08:24:07;28.73;;;16.13;;
65271;SDS011;51868;48.812;8.198;2022-12-20T08:26:36;25.38;;;14.15;;
65271;SDS011;51868;48.812;8.198;2022-12-20T08:29:09;28.58;;;15.77;;
65271;SDS011;51868;48.812;8.198;2022-12-20T08:31:37;22.13;;;14.02;;
65271;SDS011;51868;48.812;8.198;2022-12-20T08:34:12;28.08;;;15.82;;
65271;SDS011;51868;48.812;8.198;2022-12-20T08:36:42;28.20;;;15.27;;
65271;SDS011;51868;48.812;8.198;2022-12-20T08:39:10;22.02;;;14.55;;
65271;SDS011;51868;48.812;8.198;2022-12-20T08:41:37;25.13;;;15.30;;
65271;SDS011;51868;48.812;8.198;2022-12-20T08:44:05;25.15;;;15.15;;
65271;SDS011;51868;48.812;8.198;2022-12-20T08:46:33;20.85;;;13.73;;
65271;SDS011;51868;48.812;8.198;2022-12-20T08:49:08;24.17;;;14.48;;
65271;SDS011;51868;48.812;8.198;2022-12-20T08:51:36;22.35;;;14.70;;
65271;SDS011;51868;48.812;8.198;2022-12-20T08:54:05;20.92;;;14.20;;
65271;SDS011;51868;48.812;8.198;2022-12-20T08:56:33;28.67;;;15.88;;
65271;SDS011;51868;48.812;8.198;2022-12-20T08:59:01;29.80;;;15.02;;
65271;SDS011;51868;48.812;8.198;2022-12-20T09:01:30;22.80;;;14.38;;
65271;SDS011;51868;48.812;8.198;2022-12-20T09:03:59;28.83;;;17.00;;
65271;SDS011;51868;48.812;8.198;2022-12-20T09:06:27;25.23;;;17.30;;
65271;SDS011;51868;48.812;8.198;2022-12-20T09:08:55;31.60;;;19.15;;
65271;SDS011;51868;48.812;8.198;2022-12-20T09:11:24;39.72;;;21.90;;
65271;SDS011;51868;48.812;8.198;2022-12-20T09:13:54;36.55;;;20.27;;
65271;SDS011;51868;48.812;8.198;2022-12-20T09:16:25;35.15;;;19.42;;
65271;SDS011;51868;48.812;8.198;2022-12-20T09:18:55;35.60;;;19.95;;
65271;SDS011;51868;48.812;8.198;2022-12-20T09:21:31;31.75;;;19.40;;
65271;SDS011;51868;48.812;8.198;2022-12-20T09:23:58;31.88;;;19.27;;
65271;SDS011;51868;48.812;8.198;2022-12-20T09:26:28;31.00;;;18.65;;
65271;SDS011;51868;48.812;8.198;2022-12-20T09:28:56;31.55;;;18.35;;
65271;SDS011;51868;48.812;8.198;2022-12-20T09:31:27;33.90;;;18.38;;
65271;SDS011;51868;48.812;8.198;2022-12-20T09:33:56;33.30;;;19.25;;
65271;SDS011;51868;48.812;8.198;2022-12-20T09:36:25;30.95;;;18.20;;
65271;SDS011;51868;48.812;8.198;2022-12-20T09:38:56;34.33;;;20.35;;
65271;SDS011;51868;48.812;8.198;2022-12-20T09:41:25;31.95;;;18.73;;
65271;SDS011;51868;48.812;8.198;2022-12-20T09:44:03;33.58;;;18.83;;
65271;SDS011;51868;48.812;8.198;2022-12-20T09:46:40;32.15;;;20.38;;
65271;SDS011;51868;48.812;8.198;2022-12-20T09:49:10;33.05;;;19.90;;
65271;SDS011;51868;48.812;8.198;2022-12-20T09:51:46;37.85;;;20.88;;
65271;SDS011;51868;48.812;8.198;2022-12-20T09:54:28;30.55;;;20.35;;
65271;SDS011;51868;48.812;8.198;2022-12-20T09:57:05;37.72;;;21.05;;
65271;SDS011;51868;48.812;8.198;2022-12-20T09:59:45;35.58;;;19.45;;
65271;SDS011;51868;48.812;8.198;2022-12-20T10:02:16;33.47;;;19.38;;
65271;SDS011;51868;48.812;8.198;2022-12-20T10:05:08;35.00;;;19.15;;
65271;SDS011;51868;48.812;8.198;2022-12-20T10:07:40;30.10;;;17.67;;
65271;SDS011;51868;48.812;8.198;2022-12-20T10:13:15;24.88;;;16.23;;
65271;SDS011;51868;48.812;8.198;2022-12-20T10:15:53;27.92;;;16.92;;
65271;SDS011;51868;48.812;8.198;2022-12-20T10:18:31;33.42;;;19.27;;
65271;SDS011;51868;48.812;8.198;2022-12-20T10:21:14;33.58;;;20.15;;
65271;SDS011;51868;48.812;8.198;2022-12-20T10:23:50;32.15;;;20.63;;
65271;SDS011;51868;48.812;8.198;2022-12-20T10:26:24;32.30;;;19.80;;
65271;SDS011;51868;48.812;8.198;2022-12-20T10:28:53;33.13;;;19.83;;
65271;SDS011;51868;48.812;8.198;2022-12-20T10:31:21;29.77;;;18.77;;
65271;SDS011;51868;48.812;8.198;2022-12-20T10:33:50;34.72;;;18.65;;
65271;SDS011;51868;48.812;8.198;2022-12-20T10:36:19;26.25;;;17.30;;
65271;SDS011;51868;48.812;8.198;2022-12-20T10:38:50;31.63;;;18.42;;
65271;SDS011;51868;48.812;8.198;2022-12-20T10:41:20;33.28;;;18.60;;
65271;SDS011;51868;48.812;8.198;2022-12-20T10:43:51;29.13;;;17.27;;
65271;SDS011;51868;48.812;8.198;2022-12-20T10:46:22;31.08;;;17.17;;
65271;SDS011;51868;48.812;8.198;2022-12-20T10:51:52;26.73;;;17.77;;
65271;SDS011;51868;48.812;8.198;2022-12-20T10:54:23;34.42;;;19.15;;
65271;SDS011;51868;48.812;8.198;2022-12-20T10:56:57;34.60;;;17.73;;
65271;SDS011;51868;48.812;8.198;2022-12-20T10:59:29;37.95;;;19.40;;
65271;SDS011;51868;48.812;8.198;2022-12-20T11:02:23;28.77;;;17.15;;
65271;SDS011;51868;48.812;8.198;2022-12-20T11:05:03;24.27;;;15.88;;
65271;SDS011;51868;48.812;8.198;2022-12-20T11:07:52;26.52;;;17.13;;
65271;SDS011;51868;48.812;8.198;2022-12-20T11:10:41;31.20;;;17.55;;
65271;SDS011;51868;48.812;8.198;2022-12-20T11:13:18;32.00;;;17.15;;
65271;SDS011;51868;48.812;8.198;2022-12-20T11:15:54;31.70;;;16.92;;
65271;SDS011;51868;48.812;8.198;2022-12-20T11:18:29;31.02;;;17.83;;
65271;SDS011;51868;48.812;8.198;2022-12-20T11:21:10;40.60;;;18.33;;
65271;SDS011;51868;48.812;8.198;2022-12-20T11:23:55;31.27;;;17.05;;
65271;SDS011;51868;48.812;8.198;2022-12-20T11:26:32;31.45;;;18.52;;
65271;SDS011;51868;48.812;8.198;2022-12-20T11:29:12;37.47;;;20.10;;
65271;SDS011;51868;48.812;8.198;2022-12-20T11:31:50;30.98;;;17.13;;
65271;SDS011;51868;48.812;8.198;2022-12-20T11:34:29;24.90;;;14.88;;
65271;SDS011;51868;48.812;8.198;2022-12-20T11:37:16;28.70;;;16.00;;
65271;SDS011;51868;48.812;8.198;2022-12-20T11:39:50;26.30;;;14.43;;
65271;SDS011;51868;48.812;8.198;2022-12-20T11:42:33;30.50;;;14.43;;
65271;SDS011;51868;48.812;8.198;2022-12-20T11:45:18;26.15;;;14.80;;
65271;SDS011;51868;48.812;8.198;2022-12-20T11:47:56;26.35;;;15.20;;
65271;SDS011;51868;48.812;8.198;2022-12-20T11:50:41;25.00;;;13.68;;
65271;SDS011;51868;48.812;8.198;2022-12-20T11:53:20;27.00;;;15.02;;
65271;SDS011;51868;48.812;8.198;2022-12-20T11:58:22;28.52;;;14.93;;
65271;SDS011;51868;48.812;8.198;2022-12-20T12:00:55;29.80;;;18.02;;
65271;SDS011;51868;48.812;8.198;2022-12-20T12:03:29;30.23;;;17.73;;
65271;SDS011;51868;48.812;8.198;2022-12-20T12:06:02;22.85;;;13.95;;
65271;SDS011;51868;48.812;8.198;2022-12-20T12:08:35;19.90;;;13.95;;
65271;SDS011;51868;48.812;8.198;2022-12-20T12:11:11;26.25;;;14.48;;
65271;SDS011;51868;48.812;8.198;2022-12-20T12:14:03;21.42;;;13.80;;
65271;SDS011;51868;48.812;8.198;2022-12-20T12:16:33;21.52;;;14.27;;
65271;SDS011;51868;48.812;8.198;2022-12-20T12:19:06;21.60;;;13.82;;
65271;SDS011;51868;48.812;8.198;2022-12-20T12:21:37;25.58;;;14.07;;
65271;SDS011;51868;48.812;8.198;2022-12-20T12:24:16;25.42;;;13.70;;
65271;SDS011;51868;48.812;8.198;2022-12-20T12:26:48;26.27;;;14.13;;
65271;SDS011;51868;48.812;8.198;2022-12-20T12:29:16;21.02;;;14.05;;
65271;SDS011;51868;48.812;8.198;2022-12-20T12:31:47;23.02;;;13.25;;
65271;SDS011;51868;48.812;8.198;2022-12-20T12:34:28;20.65;;;13.50;;
65271;SDS011;51868;48.812;8.198;2022-12-20T12:40:08;23.15;;;14.00;;
65271;SDS011;51868;48.812;8.198;2022-12-20T12:43:14;23.15;;;15.23;;
65271;SDS011;51868;48.812;8.198;2022-12-20T12:46:08;21.90;;;14.85;;
65271;SDS011;51868;48.812;8.198;2022-12-20T12:48:40;22.95;;;14.88;;
65271;SDS011;51868;48.812;8.198;2022-12-20T12:51:14;23.77;;;15.38;;
65271;SDS011;51868;48.812;8.198;2022-12-20T12:53:48;25.55;;;16.33;;
65271;SDS011;51868;48.812;8.198;2022-12-20T12:56:30;23.95;;;15.77;;
65271;SDS011;51868;48.812;8.198;2022-12-20T12:59:25;29.83;;;17.30;;
65271;SDS011;51868;48.812;8.198;2022-12-20T13:02:23;26.38;;;17.35;;
65271;SDS011;51868;48.812;8.198;2022-12-20T13:08:14;33.58;;;20.25;;
65271;SDS011;51868;48.812;8.198;2022-12-20T13:13:38;29.33;;;19.08;;
65271;SDS011;51868;48.812;8.198;2022-12-20T13:16:09;35.65;;;24.20;;
65271;SDS011;51868;48.812;8.198;2022-12-20T13:21:39;36.15;;;23.92;;
65271;SDS011;51868;48.812;8.198;2022-12-20T13:27:16;35.45;;;21.52;;
65271;SDS011;51868;48.812;8.198;2022-12-20T13:29:54;37.40;;;22.63;;
65271;SDS011;51868;48.812;8.198;2022-12-20T13:35:31;40.08;;;24.23;;
65271;SDS011;51868;48.812;8.198;2022-12-20T13:41:10;43.65;;;23.58;;
65271;SDS011;51868;48.812;8.198;2022-12-20T13:43:44;36.53;;;23.20;;
65271;SDS011;51868;48.812;8.198;2022-12-20T13:46:12;34.95;;;23.70;;
65271;SDS011;51868;48.812;8.198;2022-12-20T13:48:48;33.80;;;21.73;;
65271;SDS011;51868;48.812;8.198;2022-12-20T13:51:19;38.17;;;22.17;;
65271;SDS011;51868;48.812;8.198;2022-12-20T13:53:50;32.42;;;20.67;;
65271;SDS011;51868;48.812;8.198;2022-12-20T13:56:34;39.50;;;20.70;;
65271;SDS011;51868;48.812;8.198;2022-12-20T13:59:13;29.77;;;19.92;;
65271;SDS011;51868;48.812;8.198;2022-12-20T14:01:48;34.90;;;19.77;;
65271;SDS011;51868;48.812;8.198;2022-12-20T14:06:49;32.72;;;18.60;;
65271;SDS011;51868;48.812;8.198;2022-12-20T14:09:29;32.30;;;18.88;;
65271;SDS011;51868;48.812;8.198;2022-12-20T14:12:04;33.03;;;17.88;;
65271;SDS011;51868;48.812;8.198;2022-12-20T14:14:36;32.33;;;17.38;;
65271;SDS011;51868;48.812;8.198;2022-12-20T14:17:14;26.70;;;17.23;;
65271;SDS011;51868;48.812;8.198;2022-12-20T14:19:43;33.03;;;18.42;;
65271;SDS011;51868;48.812;8.198;2022-12-20T14:22:11;34.25;;;19.85;;
65271;SDS011;51868;48.812;8.198;2022-12-20T14:24:39;28.88;;;18.70;;
65271;SDS011;51868;48.812;8.198;2022-12-20T14:27:11;32.92;;;18.52;;
65271;SDS011;51868;48.812;8.198;2022-12-20T14:29:40;34.33;;;20.05;;
65271;SDS011;51868;48.812;8.198;2022-12-20T14:32:16;37.30;;;20.40;;
65271;SDS011;51868;48.812;8.198;2022-12-20T14:34:45;34.10;;;20.15;;
65271;SDS011;51868;48.812;8.198;2022-12-20T14:37:23;38.55;;;21.50;;
65271;SDS011;51868;48.812;8.198;2022-12-20T14:39:54;31.60;;;20.88;;
65271;SDS011;51868;48.812;8.198;2022-12-20T14:42:28;37.63;;;22.60;;
65271;SDS011;51868;48.812;8.198;2022-12-20T14:45:03;36.97;;;22.42;;
65271;SDS011;51868;48.812;8.198;2022-12-20T14:47:46;34.40;;;22.15;;
65271;SDS011;51868;48.812;8.198;2022-12-20T14:53:12;41.27;;;22.97;;
65271;SDS011;51868;48.812;8.198;2022-12-20T14:55:45;37.67;;;23.40;;
65271;SDS011;51868;48.812;8.198;2022-12-20T14:58:23;44.65;;;25.30;;
65271;SDS011;51868;48.812;8.198;2022-12-20T15:00:56;39.90;;;24.45;;
65271;SDS011;51868;48.812;8.198;2022-12-20T15:03:25;44.25;;;28.83;;
65271;SDS011;51868;48.812;8.198;2022-12-20T15:05:54;61.20;;;33.80;;
65271;SDS011;51868;48.812;8.198;2022-12-20T15:08:25;57.60;;;31.25;;
65271;SDS011;51868;48.812;8.198;2022-12-20T15:11:00;86.32;;;41.92;;
65271;SDS011;51868;48.812;8.198;2022-12-20T15:13:40;94.70;;;43.97;;
65271;SDS011;51868;48.812;8.198;2022-12-20T15:16:12;95.43;;;42.45;;
65271;SDS011;51868;48.812;8.198;2022-12-20T15:18:41;88.10;;;42.50;;
65271;SDS011;51868;48.812;8.198;2022-12-20T15:21:11;76.82;;;39.72;;
65271;SDS011;51868;48.812;8.198;2022-12-20T15:23:41;86.10;;;40.47;;
65271;SDS011;51868;48.812;8.198;2022-12-20T15:26:14;80.30;;;40.42;;